FW9909 Weather Reports


Display with metric or nautical units.
time (UTC)temp
F
wind
direction
speed
MPH
gust
MPH
rain 1hr
in
rain 24hr
in
rain mn
in
humidity
%
barometer
mb
20240612221602 90 135 4.0 7.0 0.00 0.00 0.00 51 1008.1
20240612220503 90 135 6.0 7.0 0.00 0.00 0.00 54 1008.1
20240612215502 90 113 6.0 8.0 0.00 0.00 0.00 51 1008.1
20240612214402 93 180 3.0 4.0 0.00 0.00 0.00 50 1008.5
20240612213302 90 158 3.0 6.0 0.00 0.00 0.00 51 1008.5
20240612212202 89 180 6.0 7.0 0.00 0.00 0.00 53 1008.5
20240612211102 91 203 3.0 5.0 0.00 0.00 0.00 50 1008.5
20240612210003 90 203 3.0 6.0 0.00 0.00 0.00 51 1008.5
20240612205002 91 113 5.0 7.0 0.00 0.00 0.00 50 1008.5
20240612203902 90 225 4.0 8.0 0.00 0.00 0.00 53 1008.8
20240612202803 88 180 3.0 9.0 0.00 0.00 0.00 53 1009.1
20240612201802 90 203 2.0 7.0 0.00 0.00 0.00 51 1009.1
20240612200703 90 203 5.0 5.0 0.00 0.00 0.00 51 1009.1
20240612195602 90 158 7.0 9.0 0.00 0.00 0.00 50 1009.1
20240612194502 91 203 5.0 7.0 0.00 0.00 0.00 50 1009.1
20240612193403 90 180 5.0 8.0 0.00 0.00 0.00 55 1009.1
20240612192306 89 180 6.0 6.0 0.00 0.00 0.00 55 1009.1
20240612191302 89 203 6.0 7.0 0.00 0.00 0.00 54 1009.5
20240612190203 92 113 4.0 7.0 0.00 0.00 0.00 50 1009.5
20240612185102 90 135 3.0 6.0 0.00 0.00 0.00 54 1009.8
20240612184002 88 135 4.0 6.0 0.00 0.00 0.00 53 1009.8
20240612182902 90 158 5.0 6.0 0.00 0.00 0.00 53 1009.8
20240612181902 90 158 4.0 7.0 0.00 0.00 0.00 51 1010.2
20240612180803 90 203 10.0 10.0 0.00 0.00 0.00 51 1010.2
20240612174602 87 203 5.0 7.0 0.00 0.00 0.00 55 1010.2
20240612172403 88 90 5.0 7.0 0.00 0.00 0.00 54 1010.2
20240612171402 86 203 2.0 6.0 0.00 0.00 0.00 55 1010.2
20240612165305 89 90 2.0 4.0 0.00 0.00 0.00 54 1010.5
20240612164203 88 203 2.0 5.0 0.00 0.00 0.00 55 1010.5
20240612163102 91 180 2.0 4.0 0.00 0.00 0.00 51 1010.8
20240612160902 89 203 6.0 6.0 0.00 0.00 0.00 54 1010.8
20240612155802 85 180 2.0 5.0 0.00 0.00 0.00 60 1011.2
20240612153602 85 203 3.0 4.0 0.00 0.00 0.00 61 1010.8
20240612152502 83 180 4.0 6.0 0.00 0.00 0.00 63 1010.8
20240612151403 82 203 4.0 5.0 0.00 0.00 0.00 63 1010.8
20240612150402 82 225 3.0 6.0 0.00 0.00 0.00 65 1010.8
20240612145305 81 203 3.0 4.0 0.00 0.00 0.00 65 1011.2
20240612144202 81 158 4.0 5.0 0.00 0.00 0.00 68 1011.2
20240612143102 80 180 3.0 5.0 0.00 0.00 0.00 68 1011.2
20240612142003 79 203 6.0 6.0 0.00 0.00 0.00 70 1011.2
20240612140903 78 180 2.0 4.0 0.00 0.00 0.00 70 1011.2
20240612135802 78 225 4.0 6.0 0.00 0.00 0.00 71 1011.2
20240612134702 75 203 3.0 5.0 0.00 0.00 0.00 76 1011.2
20240612132503 74 158 3.0 5.0 0.00 0.00 0.00 78 1011.2
20240612131403 73 180 4.0 5.0 0.00 0.00 0.00 80 1011.2
20240612130302 72 135 4.0 5.0 0.00 0.00 0.00 81 1010.8
20240612125202 70 203 3.0 5.0 0.00 0.00 0.00 83 1010.8
20240612121902 69 135 4.0 4.0 0.00 0.00 0.00 83 1010.5
20240612120702 67 158 3.0 4.0 0.00 0.00 0.00 88 1010.5
20240612115602 64 158 3.0 4.0 0.00 0.00 0.00 91 1010.5
20240612114402 62 158 2.0 3.0 0.00 0.00 0.00 96 1010.5
20240612113302 60 135 2.0 3.0 0.00 0.00 0.00 98 1010.2
20240612112202 59 113 2.0 2.0 0.00 0.00 0.00 98 1010.5
20240612111102 59 135 0.0 1.0 0.00 0.00 0.00 98 1010.2
20240612110003 59 135 0.0 0.0 0.00 0.00 0.00 98 1010.2
20240612103703 59 158 0.0 0.0 0.00 0.00 0.00 98 1010.2
20240612102602 60 158 0.0 1.0 0.00 0.00 0.00 98 1010.2
20240612101502 60 135 0.0 0.0 0.00 0.00 0.00 98 1010.2
20240612100302 60 113 0.0 0.0 0.00 0.00 0.00 98 1010.2
20240612095202 60 113 0.0 0.0 0.00 0.00 0.00 98 1009.8
20240612094102 60 135 0.0 0.0 0.00 0.00 0.00 98 1009.5
20240612093003 60 180 0.0 0.0 0.00 0.00 0.00 98 1009.8
20240612091902 60 158 1.0 1.0 0.00 0.00 0.00 98 1009.8
20240612090802 60 158 0.0 0.0 0.00 0.00 0.00 98 1009.5
20240612085702 61 158 0.0 0.0 0.00 0.00 0.00 98 1009.5
20240612084602 61 158 0.0 0.0 0.00 0.00 0.00 96 1009.8
20240612082203 61 180 0.0 0.0 0.00 0.00 0.00 96 1009.5
20240612081003 61 158 0.0 0.0 0.00 0.00 0.00 96 1009.5
20240612075902 61 135 0.0 0.0 0.00 0.00 0.00 96 1009.5
20240612074702 62 158 0.0 0.0 0.00 0.00 0.00 96 1009.5
20240612073602 62 180 0.0 0.0 0.00 0.00 0.00 96 1009.5
20240612071302 62 158 0.0 0.0 0.00 0.00 0.00 95 1009.5
20240612064702 63 158 0.0 0.0 0.00 0.00 0.00 93 1009.5
20240612063102 63 135 0.0 0.0 0.00 0.00 0.00 93 1009.5
20240612060903 64 158 0.0 0.0 0.00 0.00 0.00 93 1009.5
20240612054502 64 158 0.0 0.0 0.00 0.00 0.00 91 1009.8
20240612053402 64 180 0.0 0.0 0.00 0.00 0.00 91 1009.8
20240612052305 65 180 0.0 0.0 0.00 0.00 0.00 91 1009.8
20240612050003 65 158 0.0 0.0 0.00 0.00 0.00 90 1009.8
20240612045403 65 180 0.0 0.0 0.00 0.00 0.00 90 1009.8
20240612044302 66 158 1.0 2.0 0.00 0.00 0.00 90 1009.8
20240612043202 66 113 1.0 2.0 0.00 0.00 0.00 90 1009.5
20240612042102 66 180 0.0 0.0 0.00 0.00 0.00 88 1009.5
20240612040802 67 180 0.0 0.0 0.00 0.00 0.00 86 1009.5
20240612034503 67 158 0.0 0.0 0.00 0.00 0.00 85 1009.1
20240612033502 68 135 0.0 0.0 0.00 0.00 0.00 85 1009.1
20240612032402 68 203 0.0 0.0 0.00 0.00 0.00 83 1009.1
20240612031303 69 180 0.0 0.0 0.00 0.00 0.00 81 1009.1
20240612025103 69 45 0.0 0.0 0.00 0.00 0.00 81 1008.8
20240612024002 70 180 0.0 0.0 0.00 0.00 0.00 78 1008.5
20240612022902 71 180 0.0 0.0 0.00 0.00 0.00 78 1008.1
20240612021802 71 135 0.0 0.0 0.00 0.00 0.00 75 1008.5
20240612020703 72 45 0.0 0.0 0.00 0.00 0.00 75 1008.1
20240612015603 73 203 0.0 0.0 0.00 0.00 0.00 71 1008.1
20240612014502 74 203 0.0 0.0 0.00 0.00 0.00 70 1008.1
20240612013402 75 270 0.0 0.0 0.00 0.00 0.00 69 1008.1
20240612012305 76 338 0.0 0.0 0.00 0.00 0.00 66 1008.1
20240612011202 77 180 0.0 0.0 0.00 0.00 0.00 65 1008.5
20240612010003 79 90 0.0 0.0 0.00 0.00 0.00 61 1007.8
20240612004902 80 45 1.0 2.0 0.00 0.00 0.00 59 1007.8
20240612003803 81 158 1.0 3.0 0.00 0.00 0.00 56 1007.8
20240612001702 85 158 0.0 3.0 0.00 0.00 0.00 50 1008.1
20240611235602 86 203 3.0 3.0 0.00 0.00 0.00 50 1008.1
20240611234502 84 180 2.0 3.0 0.00 0.00 0.00 50 1008.1
20240611233402 84 180 2.0 4.0 0.00 0.00 0.00 50 1008.1
20240611232305 87 135 4.0 5.0 0.00 0.00 0.00 46 1008.1
20240611231202 86 135 3.0 5.0 0.00 0.00 0.00 49 1008.1
20240611230102 91 90 2.0 2.0 0.00 0.00 0.00 44 1008.1
20240611223903 88 225 3.0 5.0 0.00 0.00 0.00 45 1008.5